createdAt,value
2023-01-18T05:17:57.205Z,97593.75
2023-01-18T05:20:23.652Z,97599.97
2023-01-18T05:22:50.231Z,97602.31
2023-01-18T05:25:16.988Z,97605.91
2023-01-18T05:27:47.872Z,97617.94
2023-01-18T05:30:14.787Z,97626.72
2023-01-18T05:32:43.428Z,97627.13
2023-01-18T05:35:10.458Z,97629.78
2023-01-18T05:37:36.896Z,97635.28
2023-01-18T05:40:03.634Z,97631.31
2023-01-18T05:42:30.166Z,97639.66
2023-01-18T05:44:56.609Z,97632.91
2023-01-18T05:47:23.150Z,97631.88
2023-01-18T05:49:49.694Z,97639.28
2023-01-18T05:52:17.103Z,97644.66
2023-01-18T05:54:43.635Z,97644.75
2023-01-18T05:57:10.895Z,97653.97
2023-01-18T05:59:37.341Z,97658.84
2023-01-18T06:02:04.635Z,97665.28
2023-01-18T06:04:31.279Z,97659.25
2023-01-18T06:06:58.040Z,97669.47
2023-01-18T06:09:24.531Z,97674.72
2023-01-18T06:11:51.075Z,97674.53
2023-01-18T06:14:17.523Z,97685.47
2023-01-18T06:16:44.053Z,97680.72
2023-01-18T06:19:10.611Z,97682.53
2023-01-18T06:21:37.335Z,97684.28
2023-01-18T06:24:07.204Z,97689.25
2023-01-18T06:26:34.726Z,97693.16
2023-01-18T06:29:09.233Z,97696.47
2023-01-18T06:31:36.866Z,97701.84
2023-01-18T06:34:09.263Z,97707.06
2023-01-18T06:36:37.331Z,97700.50
2023-01-18T06:39:04.261Z,97704.06
2023-01-18T06:42:31.695Z,97711.81
2023-01-18T06:44:59.604Z,97721.63
2023-01-18T06:47:26.228Z,97725.81
2023-01-18T06:49:52.685Z,97727.31
2023-01-18T06:52:19.380Z,97726.88
2023-01-18T06:54:45.900Z,97735.00
2023-01-18T06:57:12.625Z,97733.09
2023-01-18T06:59:39.898Z,97741.16
2023-01-18T07:02:07.167Z,97747.38
2023-01-18T07:04:37.877Z,97744.97
2023-01-18T07:07:04.478Z,97758.34
2023-01-18T07:09:31.059Z,97764.47
2023-01-18T07:11:57.540Z,97765.09
2023-01-18T07:14:23.992Z,97769.06
2023-01-18T07:16:50.521Z,97776.78
2023-01-18T07:19:17.092Z,97774.09
2023-01-18T07:21:43.762Z,97779.38
2023-01-18T07:24:11.369Z,97792.28
2023-01-18T07:26:41.392Z,97793.78
2023-01-18T07:29:09.043Z,97800.81
2023-01-18T07:31:38.162Z,97803.34
2023-01-18T07:34:05.015Z,97807.78
2023-01-18T07:36:31.612Z,97806.22
2023-01-18T07:38:58.174Z,97825.81
2023-01-18T07:41:26.126Z,97828.84
2023-01-18T07:43:53.872Z,97824.53
2023-01-18T07:46:20.799Z,97830.19
2023-01-18T07:48:48.407Z,97831.69
2023-01-18T07:51:15.333Z,97838.81
2023-01-18T07:53:42.073Z,97846.53
2023-01-18T07:56:15.426Z,97844.59
2023-01-18T07:58:42.187Z,97850.56
2023-01-18T08:01:14.209Z,97858.38
2023-01-18T08:03:43.194Z,97854.88
2023-01-18T08:06:43.952Z,97867.56
2023-01-18T08:09:10.401Z,97874.31
2023-01-18T08:11:36.832Z,97874.38
2023-01-18T08:14:03.344Z,97881.03
2023-01-18T08:16:30.016Z,97888.28
2023-01-18T08:18:56.569Z,97888.50
2023-01-18T08:21:23.057Z,97881.88
2023-01-18T08:23:53.036Z,97889.84
2023-01-18T08:26:19.848Z,97891.53
2023-01-18T08:28:46.597Z,97895.69
2023-01-18T08:31:19.614Z,97904.53
2023-01-18T08:33:48.661Z,97904.03
2023-01-18T08:36:21.735Z,97914.00
2023-01-18T08:38:57.216Z,97913.84
2023-01-18T08:41:28.411Z,97915.03
2023-01-18T08:43:55.963Z,97922.34
2023-01-18T08:46:23.142Z,97926.72
2023-01-18T08:48:54.722Z,97928.72
2023-01-18T08:51:23.026Z,97933.72
2023-01-18T08:53:54.480Z,97951.28
2023-01-18T08:56:21.211Z,97943.31
2023-01-18T08:58:48.068Z,97954.72
2023-01-18T09:01:14.680Z,97960.84
2023-01-18T09:04:31.980Z,97962.53
2023-01-18T09:06:58.470Z,97963.56
2023-01-18T09:09:24.971Z,97962.59
2023-01-18T09:11:52.296Z,97972.03
2023-01-18T09:14:19.064Z,97970.50
2023-01-18T09:16:45.513Z,97979.16
2023-01-18T09:19:12.497Z,97983.81
2023-01-18T09:21:40.106Z,97988.63
2023-01-18T09:24:07.376Z,97998.63
2023-01-18T09:26:34.111Z,98000.78
2023-01-18T09:29:00.652Z,98005.97
2023-01-18T09:31:30.641Z,98001.38
2023-01-18T09:34:06.342Z,98004.69
2023-01-18T09:36:44.345Z,98005.91
2023-01-18T09:39:10.779Z,98021.34
2023-01-18T09:41:42.757Z,98024.84
2023-01-18T09:44:22.143Z,98021.38
2023-01-18T09:46:55.094Z,98032.50
2023-01-18T09:49:37.363Z,98043.34
2023-01-18T09:52:48.317Z,98045.28
2023-01-18T09:55:33.860Z,98051.53
2023-01-18T09:58:28.371Z,98044.84
2023-01-18T10:01:02.448Z,98047.09
2023-01-18T10:03:31.424Z,98043.63
2023-01-18T10:06:08.816Z,98054.88
2023-01-18T10:09:15.915Z,98057.59
2023-01-18T10:12:00.803Z,98061.53
2023-01-18T10:14:37.310Z,98067.38
2023-01-18T10:17:11.774Z,98073.66
2023-01-18T10:19:38.944Z,98072.34
2023-01-18T10:22:19.615Z,98075.34
2023-01-18T10:25:05.548Z,98074.75
2023-01-18T10:27:44.394Z,98079.81
2023-01-18T10:30:35.331Z,98073.03
2023-01-18T10:33:13.342Z,98075.94
2023-01-18T10:35:44.579Z,98079.81
2023-01-18T10:38:17.719Z,98079.44
2023-01-18T10:40:59.663Z,98075.44
2023-01-18T10:43:28.668Z,98078.25
2023-01-18T10:45:55.808Z,98076.06
2023-01-18T10:48:24.940Z,98083.47
2023-01-18T10:51:03.760Z,98090.19
2023-01-18T10:53:38.273Z,98084.78
2023-01-18T10:56:13.344Z,98091.66
2023-01-18T10:58:52.136Z,98095.34
2023-01-18T11:01:23.555Z,98103.56
2023-01-18T11:03:54.428Z,98101.59
2023-01-18T11:06:22.176Z,98098.53
2023-01-18T11:08:49.898Z,98108.56
2023-01-18T11:11:51.395Z,98107.75
2023-01-18T11:14:39.554Z,98110.59
2023-01-18T11:17:11.325Z,98111.66
2023-01-18T11:19:39.184Z,98116.03
2023-01-18T11:22:16.687Z,98125.81
2023-01-18T11:24:43.272Z,98124.41
2023-01-18T11:27:21.275Z,98118.56
2023-01-18T11:29:47.909Z,98121.13
2023-01-18T11:32:28.892Z,98124.09
2023-01-18T11:35:00.020Z,98117.56
2023-01-18T11:37:51.749Z,98118.66
2023-01-18T11:40:27.689Z,98122.78
2023-01-18T11:43:09.284Z,98126.38
2023-01-18T11:45:45.840Z,98125.25
2023-01-18T11:48:26.211Z,98125.09
2023-01-18T11:50:59.528Z,98126.91
2023-01-18T11:53:41.569Z,98124.94
2023-01-18T11:56:20.842Z,98123.91
2023-01-18T11:58:49.615Z,98135.09
2023-01-18T12:01:35.217Z,98136.56
2023-01-18T12:04:40.017Z,98137.66
2023-01-18T12:07:21.051Z,98136.28
2023-01-18T12:09:47.433Z,98138.91
2023-01-18T12:12:19.993Z,98138.47
2023-01-18T12:14:51.319Z,98146.41
2023-01-18T12:18:04.363Z,98149.63
2023-01-18T12:20:58.290Z,98147.38
2023-01-18T12:23:54.536Z,98159.16
2023-01-18T12:26:27.213Z,98165.72
2023-01-18T12:29:20.220Z,98163.66
2023-01-18T12:32:02.688Z,98178.00
2023-01-18T12:34:45.747Z,98179.06
2023-01-18T12:37:27.216Z,98176.97
2023-01-18T12:40:00.653Z,98187.97
2023-01-18T12:42:45.740Z,98194.53
2023-01-18T12:45:38.938Z,98184.59
2023-01-18T12:48:36.178Z,98188.22
2023-01-18T12:51:16.113Z,98194.44
2023-01-18T12:53:53.491Z,98196.84
2023-01-18T12:56:38.353Z,98198.16
2023-01-18T12:59:10.043Z,98209.94
2023-01-18T13:01:42.810Z,98212.66
2023-01-18T13:04:27.683Z,98211.88
2023-01-18T13:07:00.417Z,98217.81
2023-01-18T13:09:34.134Z,98213.06
2023-01-18T13:12:02.636Z,98226.34
2023-01-18T13:14:41.354Z,98218.25
2023-01-18T13:17:20.917Z,98222.31
2023-01-18T13:19:54.856Z,98231.63
2023-01-18T13:22:53.483Z,98228.56
2023-01-18T13:25:19.904Z,98231.69
2023-01-18T13:28:16.834Z,98232.66
2023-01-18T13:30:56.417Z,98235.06
2023-01-18T13:33:27.025Z,98234.94
2023-01-18T13:36:10.977Z,98242.72
2023-01-18T13:38:47.806Z,98252.09
2023-01-18T13:41:16.815Z,98244.75
2023-01-18T13:43:43.213Z,98246.75
2023-01-18T13:46:09.892Z,98247.41
2023-01-18T13:48:42.797Z,98246.38
2023-01-18T13:51:09.390Z,98245.75
2023-01-18T13:53:49.899Z,98255.28
2023-01-18T13:56:25.720Z,98256.84
2023-01-18T13:58:58.620Z,98270.25
2023-01-18T14:01:32.628Z,98267.16
2023-01-18T14:04:05.680Z,98270.88
2023-01-18T14:06:36.226Z,98281.56
2023-01-18T14:09:07.612Z,98282.47
2023-01-18T14:11:40.507Z,98288.84
2023-01-18T14:14:24.407Z,98301.59
2023-01-18T14:16:54.010Z,98303.41
2023-01-18T14:19:22.404Z,98313.19
2023-01-18T14:22:21.501Z,98321.50
2023-01-18T14:24:52.971Z,98322.31
2023-01-18T14:27:25.446Z,98327.00
2023-01-18T14:29:56.765Z,98330.69
2023-01-18T14:32:36.823Z,98333.66
2023-01-18T14:35:16.821Z,98347.09
2023-01-18T14:37:44.494Z,98345.25
2023-01-18T14:40:13.926Z,98348.97
2023-01-18T14:43:05.771Z,98347.00
2023-01-18T14:45:36.167Z,98358.88
2023-01-18T14:48:12.881Z,98360.56
2023-01-18T14:50:48.362Z,98362.69
2023-01-18T14:53:21.335Z,98370.91
2023-01-18T14:56:19.206Z,98371.78
2023-01-18T14:59:00.589Z,98377.81
2023-01-18T15:01:40.311Z,98386.41
2023-01-18T15:04:19.693Z,98390.06
2023-01-18T15:06:53.981Z,98387.84
2023-01-18T15:09:22.415Z,98386.59
2023-01-18T15:11:50.846Z,98387.75
2023-01-18T15:14:21.783Z,98394.53
2023-01-18T15:16:55.153Z,98395.59
2023-01-18T15:19:31.680Z,98402.03
2023-01-18T15:22:00.577Z,98411.38
2023-01-18T15:24:29.210Z,98426.00
2023-01-18T15:27:00.918Z,98417.97
2023-01-18T15:29:31.765Z,98421.88
2023-01-18T15:32:04.928Z,98422.72
2023-01-18T15:34:35.402Z,98416.72
2023-01-18T15:37:05.738Z,98432.94
2023-01-18T15:39:33.640Z,98439.16
2023-01-18T15:42:07.996Z,98449.19
2023-01-18T15:44:48.148Z,98452.00
2023-01-18T15:47:27.661Z,98457.06
2023-01-18T15:50:00.093Z,98455.41
2023-01-18T15:52:45.643Z,98461.31
2023-01-18T15:55:26.032Z,98464.56
2023-01-18T15:58:01.025Z,98472.19
2023-01-18T16:00:33.506Z,98471.88
2023-01-18T16:03:00.168Z,98475.25
2023-01-18T16:05:26.950Z,98477.13
2023-01-18T16:08:16.350Z,98485.66
2023-01-18T16:10:55.257Z,98484.81
2023-01-18T16:13:34.549Z,98493.81
2023-01-18T16:16:06.534Z,98497.41
2023-01-18T16:18:33.384Z,98500.72
2023-01-18T16:21:12.724Z,98503.59
2023-01-18T16:23:43.864Z,98506.72
2023-01-18T16:26:12.033Z,98508.44
2023-01-18T16:28:38.567Z,98518.59
2023-01-18T16:31:05.153Z,98513.47
2023-01-18T16:33:33.023Z,98524.09
2023-01-18T16:35:59.597Z,98529.00
2023-01-18T16:38:26.113Z,98535.34
2023-01-18T16:40:52.778Z,98537.34
2023-01-18T16:43:19.381Z,98532.66
2023-01-18T16:45:49.015Z,98540.63
2023-01-18T16:48:20.448Z,98544.75
2023-01-18T16:50:47.761Z,98543.31
2023-01-18T16:53:17.667Z,98548.50
2023-01-18T16:55:45.147Z,98553.81
2023-01-18T16:58:16.655Z,98558.59
2023-01-18T17:01:05.825Z,98564.88
2023-01-18T17:03:34.564Z,98573.25
2023-01-18T17:06:01.644Z,98571.50
2023-01-18T17:08:28.436Z,98574.03
2023-01-18T17:10:55.848Z,98572.38
2023-01-18T17:13:23.308Z,98576.13
2023-01-18T17:15:51.986Z,98570.44
2023-01-18T17:18:22.394Z,98578.78
2023-01-18T17:20:53.146Z,98581.84
2023-01-18T17:23:19.988Z,98580.16
2023-01-18T17:25:47.025Z,98585.66
2023-01-18T17:28:17.822Z,98598.47
2023-01-18T17:30:48.804Z,98598.06
2023-01-18T17:33:20.821Z,98592.97
2023-01-18T17:35:52.277Z,98598.94
2023-01-18T17:38:26.318Z,98600.81
2023-01-18T17:40:54.842Z,98607.25
2023-01-18T17:43:33.440Z,98616.69
2023-01-18T17:46:05.723Z,98616.38
2023-01-18T17:48:32.385Z,98625.16
2023-01-18T17:50:59.331Z,98624.13
2023-01-18T17:53:29.595Z,98629.50
2023-01-18T17:55:56.227Z,98634.69
2023-01-18T17:58:24.933Z,98635.72
2023-01-18T18:00:51.653Z,98633.66
2023-01-18T18:03:19.164Z,98637.22
2023-01-18T18:05:46.285Z,98648.44
2023-01-18T18:08:12.781Z,98651.94
2023-01-18T18:10:43.371Z,98662.34
2023-01-18T18:13:20.641Z,98665.00
2023-01-18T18:15:50.516Z,98665.19
2023-01-18T18:18:23.756Z,98661.75
2023-01-18T18:21:01.175Z,98669.94
2023-01-18T18:23:29.293Z,98671.06
2023-01-18T18:25:56.633Z,98671.94
2023-01-18T18:28:24.801Z,98674.63
2023-01-18T18:30:51.677Z,98681.03
2023-01-18T18:33:19.642Z,98689.97
2023-01-18T18:35:51.710Z,98681.25
2023-01-18T18:38:18.985Z,98687.72
2023-01-18T18:40:45.928Z,98689.41
2023-01-18T18:43:12.830Z,98689.63
2023-01-18T18:45:39.731Z,98704.16
2023-01-18T18:48:06.516Z,98688.69
2023-01-18T18:50:33.020Z,98696.34
2023-01-18T18:52:59.956Z,98694.84
2023-01-18T18:55:26.985Z,98696.56
2023-01-18T18:57:53.856Z,98701.09
2023-01-18T19:00:21.014Z,98708.28
2023-01-18T19:02:51.815Z,98705.22
2023-01-18T19:05:18.993Z,98703.66
2023-01-18T19:07:57.573Z,98712.59
2023-01-18T19:10:27.428Z,98714.56
2023-01-18T19:12:55.022Z,98724.09
2023-01-18T19:15:22.300Z,98726.69
2023-01-18T19:17:53.186Z,98724.94
2023-01-18T19:20:20.629Z,98729.44
2023-01-18T19:22:48.673Z,98731.88
2023-01-18T19:25:16.828Z,98725.91
2023-01-18T19:27:43.836Z,98735.34
2023-01-18T19:30:18.989Z,98723.47
2023-01-18T19:32:50.906Z,98722.81
2023-01-18T19:35:18.858Z,98723.06
2023-01-18T19:37:46.672Z,98737.69
2023-01-18T19:40:15.422Z,98743.72
2023-01-18T19:42:41.954Z,98742.09
2023-01-18T19:45:11.460Z,98740.44
2023-01-18T19:47:41.391Z,98749.59
2023-01-18T19:50:09.627Z,98746.66
2023-01-18T19:52:37.128Z,98748.09
2023-01-18T19:55:04.110Z,98747.09
2023-01-18T19:57:31.331Z,98752.59
2023-01-18T19:59:57.885Z,98755.34
2023-01-18T20:02:24.663Z,98763.16
2023-01-18T20:04:52.568Z,98768.44
2023-01-18T20:07:19.280Z,98768.66
2023-01-18T20:09:47.862Z,98777.25
2023-01-18T20:12:18.511Z,98779.81
2023-01-18T20:14:47.302Z,98786.69
2023-01-18T20:17:14.995Z,98788.63
2023-01-18T20:19:42.621Z,98786.81
2023-01-18T20:22:11.100Z,98790.38
2023-01-18T20:24:37.770Z,98789.47
2023-01-18T20:27:15.440Z,98793.81
2023-01-18T20:29:43.210Z,98793.78
2023-01-18T20:32:16.068Z,98800.78
2023-01-18T20:34:44.861Z,98802.44
2023-01-18T20:37:12.984Z,98793.09
2023-01-18T20:39:39.899Z,98800.97
2023-01-18T20:42:06.764Z,98803.78
2023-01-18T20:44:33.475Z,98799.41
2023-01-18T20:47:00.275Z,98802.88
2023-01-18T20:49:37.326Z,98809.00
2023-01-18T20:52:06.847Z,98809.91
2023-01-18T20:54:35.736Z,98809.81
2023-01-18T20:57:03.514Z,98816.69
2023-01-18T20:59:30.023Z,98819.31
2023-01-18T21:01:56.918Z,98821.06
2023-01-18T21:04:25.136Z,98818.47
2023-01-18T21:06:51.649Z,98821.91
2023-01-18T21:09:18.908Z,98828.88
2023-01-18T21:11:45.717Z,98841.81
2023-01-18T21:14:12.751Z,98841.00
2023-01-18T21:16:39.724Z,98848.03
2023-01-18T21:19:06.369Z,98846.28
2023-01-18T21:21:33.133Z,98852.25
2023-01-18T21:24:00.076Z,98851.50
2023-01-18T21:26:26.812Z,98855.81
2023-01-18T21:28:54.634Z,98858.53
2023-01-18T21:31:22.077Z,98861.97
2023-01-18T21:33:49.320Z,98852.53
2023-01-18T21:36:18.072Z,98854.19
2023-01-18T21:38:44.696Z,98856.03
2023-01-18T21:41:30.362Z,98855.16
2023-01-18T21:44:15.645Z,98856.22
2023-01-18T21:46:46.856Z,98868.28
2023-01-18T21:49:52.130Z,98869.16
2023-01-18T21:52:38.776Z,98867.28
2023-01-18T21:55:05.610Z,98867.34
2023-01-18T21:57:32.110Z,98864.63
2023-01-18T21:59:58.703Z,98860.31
2023-01-18T22:02:25.515Z,98868.97
2023-01-18T22:04:59.197Z,98868.91
2023-01-18T22:07:27.649Z,98874.16
2023-01-18T22:10:03.888Z,98878.59
2023-01-18T22:12:31.754Z,98888.22
2023-01-18T22:15:02.309Z,98886.56
2023-01-18T22:17:29.366Z,98896.88
2023-01-18T22:19:56.008Z,98898.69
2023-01-18T22:22:22.573Z,98896.00
2023-01-18T22:24:49.354Z,98899.44
2023-01-18T22:27:17.715Z,98903.78
2023-01-18T22:29:44.731Z,98921.84
2023-01-18T22:32:11.591Z,98922.72
2023-01-18T22:34:38.142Z,98917.59
2023-01-18T22:37:05.726Z,98929.66
2023-01-18T22:39:33.217Z,98926.25
2023-01-18T22:42:00.002Z,98928.00
2023-01-18T22:44:37.921Z,98930.66
2023-01-18T22:47:05.061Z,98928.06
2023-01-18T22:49:31.800Z,98925.41
2023-01-18T22:51:58.384Z,98927.16
2023-01-18T22:54:24.981Z,98924.53
2023-01-18T22:56:51.633Z,98928.84
2023-01-18T22:59:18.221Z,98929.78
